Time;durP1;ratioP1;P1;durP2;ratioP2;P2;SDS_P1;SDS_P2;PMS_P1;PMS_P2;Temp;Humidity;BMP_temperature;BMP_pressure;BME280_temperature;BME280_humidity;BME280_pressure;Samples;Min_cycle;Max_cycle;Signal;HPM_P1;HPM_P2
2021/10/09 00:01:55;;;;;;;42.95;25.30;;;6.90;99.90;;;;;;5059681;28;20029;-70
2021/10/09 00:04:20;;;;;;;40.47;24.60;;;7.50;99.90;;;;;;5057918;28;20031;-69
2021/10/09 00:06:46;;;;;;;37.03;23.88;;;6.80;99.90;;;;;;5060232;28;20131;-69
2021/10/09 00:09:12;;;;;;;39.85;24.13;;;6.90;99.90;;;;;;5057443;28;20420;-68
2021/10/09 00:11:38;;;;;;;41.13;24.45;;;;;;;;;;5059568;28;20496;-69
2021/10/09 00:14:12;;;;;;;45.33;26.33;;;7.00;99.90;;;;;;5058057;28;20025;-68
2021/10/09 00:16:39;;;;;;;42.50;23.92;;;6.90;99.90;;;;;;5057978;28;20027;-70
2021/10/09 00:19:05;;;;;;;44.55;25.48;;;6.80;99.90;;;;;;5056883;28;20079;-69
2021/10/09 00:21:31;;;;;;;41.70;24.67;;;6.80;99.90;;;;;;5059136;28;20114;-69
2021/10/09 00:23:59;;;;;;;43.78;25.63;;;6.80;99.90;;;;;;5058731;28;20108;-69
2021/10/09 00:26:25;;;;;;;43.83;25.65;;;6.80;99.90;;;;;;5056777;28;20446;-69
2021/10/09 00:28:51;;;;;;;43.10;25.25;;;6.80;99.90;;;;;;5058140;28;20056;-69
2021/10/09 00:31:17;;;;;;;41.75;25.55;;;6.80;99.90;;;;;;5056206;28;20037;-70
2021/10/09 00:33:43;;;;;;;43.25;26.05;;;6.80;99.90;;;;;;5050681;28;20377;-69
2021/10/09 00:36:08;;;;;;;43.05;25.40;;;6.80;99.90;;;;;;5050060;28;20029;-68
2021/10/09 00:38:34;;;;;;;50.05;26.95;;;6.70;99.90;;;;;;5033428;28;20049;-69
2021/10/09 00:41:00;;;;;;;50.03;28.30;;;6.70;99.90;;;;;;5042402;28;20036;-70
2021/10/09 00:43:27;;;;;;;46.13;25.98;;;6.70;99.90;;;;;;5049727;28;20032;-69
2021/10/09 00:45:55;;;;;;;45.67;27.33;;;6.70;99.90;;;;;;5050073;28;20458;-70
2021/10/09 00:48:21;;;;;;;44.30;25.83;;;6.70;99.90;;;;;;5049314;28;20060;-69
2021/10/09 00:50:48;;;;;;;48.55;27.42;;;;;;;;;;5035557;28;20065;-70
2021/10/09 00:53:15;;;;;;;50.03;27.58;;;;;;;;;;5032552;28;20474;-69
2021/10/09 00:55:41;;;;;;;53.10;28.02;;;6.50;99.90;;;;;;5050159;28;20025;-68
2021/10/09 00:58:08;;;;;;;46.65;26.83;;;6.40;99.90;;;;;;5031324;28;20451;-68
2021/10/09 01:00:35;;;;;;;48.30;28.05;;;6.40;99.90;;;;;;5016563;28;20084;-70
2021/10/09 01:03:04;;;;;;;41.67;25.92;;;6.30;99.90;;;;;;5050465;28;20051;-69
2021/10/09 01:05:31;;;;;;;50.85;28.48;;;6.30;99.90;;;;;;5039039;28;20020;-69
2021/10/09 01:07:57;;;;;;;48.67;28.30;;;6.30;99.90;;;;;;5037559;28;20099;-69
2021/10/09 01:10:24;;;;;;;55.53;28.65;;;6.30;99.90;;;;;;5033798;28;20029;-70
2021/10/09 01:12:49;;;;;;;60.90;30.75;;;6.20;99.90;;;;;;5034599;28;20025;-70
2021/10/09 01:15:24;;;;;;;55.05;29.85;;;6.20;99.90;;;;;;5044014;28;20040;-68
2021/10/09 01:17:50;;;;;;;51.63;28.92;;;6.30;99.90;;;;;;5044148;28;20097;-69
2021/10/09 01:20:16;;;;;;;51.72;29.63;;;6.30;99.90;;;;;;5049466;28;20102;-70
2021/10/09 01:22:45;;;;;;;52.28;28.67;;;6.30;99.90;;;;;;5035657;28;20038;-70
2021/10/09 01:25:10;;;;;;;49.15;28.52;;;6.30;99.90;;;;;;5033097;28;20022;-68
2021/10/09 01:27:39;;;;;;;51.20;27.75;;;6.20;99.90;;;;;;5041525;28;20108;-70
2021/10/09 01:30:09;;;;;;;54.95;29.08;;;6.20;99.90;;;;;;5043963;28;20103;-70
2021/10/09 01:32:35;;;;;;;45.78;26.85;;;6.10;99.90;;;;;;5042698;28;20025;-70
2021/10/09 01:35:07;;;;;;;48.33;28.13;;;6.10;99.90;;;;;;5049275;28;20037;-69
2021/10/09 01:37:40;;;;;;;54.70;29.95;;;6.10;99.90;;;;;;5033908;28;20037;-69
2021/10/09 01:40:07;;;;;;;48.50;28.45;;;6.10;99.90;;;;;;5043759;28;20044;-69
2021/10/09 01:42:35;;;;;;;47.25;26.17;;;6.10;99.90;;;;;;5053459;28;20037;-69
2021/10/09 01:45:03;;;;;;;57.08;30.13;;;6.00;99.90;;;;;;5039724;28;20462;-69
2021/10/09 01:47:28;;;;;;;54.25;29.38;;;6.00;99.90;;;;;;5051190;28;20029;-69
2021/10/09 01:49:54;;;;;;;53.88;28.88;;;6.00;99.90;;;;;;5045418;28;20078;-69
2021/10/09 01:52:19;;;;;;;52.08;28.55;;;6.00;99.90;;;;;;5052980;28;20111;-69
2021/10/09 01:54:45;;;;;;;53.78;30.02;;;6.00;99.90;;;;;;5044925;28;20039;-69
2021/10/09 01:57:11;;;;;;;58.30;29.77;;;5.90;99.90;;;;;;5036038;28;20408;-68
2021/10/09 01:59:36;;;;;;;54.55;30.38;;;6.00;99.90;;;;;;5045835;28;20356;-70
2021/10/09 02:02:02;;;;;;;52.40;29.98;;;6.00;99.90;;;;;;5034168;28;20034;-69
2021/10/09 02:04:28;;;;;;;56.83;30.73;;;6.00;99.90;;;;;;5053023;28;20074;-69
2021/10/09 02:06:53;;;;;;;49.65;30.30;;;6.00;99.90;;;;;;5053545;28;20045;-70
2021/10/09 02:09:19;;;;;;;52.92;29.55;;;6.00;99.90;;;;;;5040677;28;20044;-68
2021/10/09 02:11:50;;;;;;;56.53;29.55;;;6.00;99.90;;;;;;5043697;28;20104;-69
2021/10/09 02:26:52;;;;;;;56.13;31.73;;;5.90;99.90;;;;;;5034691;28;20068;-69
2021/10/09 02:29:18;;;;;;;54.88;29.92;;;5.90;99.90;;;;;;5036642;28;20033;-69
2021/10/09 02:31:44;;;;;;;52.08;29.33;;;5.90;99.90;;;;;;5053458;28;20104;-69
2021/10/09 02:34:10;;;;;;;52.65;28.20;;;6.00;99.90;;;;;;5053352;28;20029;-69
2021/10/09 02:36:35;;;;;;;53.03;28.95;;;6.00;99.90;;;;;;5052238;28;20086;-69
2021/10/09 02:39:01;;;;;;;50.03;30.27;;;5.90;99.90;;;;;;5048202;28;20037;-69
2021/10/09 02:41:27;;;;;;;46.17;27.50;;;5.90;99.90;;;;;;5039237;28;20069;-69
2021/10/09 02:43:52;;;;;;;52.03;28.27;;;5.90;99.90;;;;;;5034373;28;20053;-69
2021/10/09 02:46:18;;;;;;;54.40;30.15;;;5.90;99.90;;;;;;5032216;28;20025;-69
2021/10/09 02:48:43;;;;;;;50.10;28.08;;;5.90;99.90;;;;;;5017203;28;20059;-69
2021/10/09 02:51:09;;;;;;;48.22;27.83;;;5.90;99.90;;;;;;5032905;28;20022;-69
2021/10/09 02:53:35;;;;;;;46.05;27.70;;;5.90;99.90;;;;;;5032154;28;20022;-69
2021/10/09 02:56:00;;;;;;;54.42;29.45;;;5.90;99.90;;;;;;5035366;28;20025;-70
2021/10/09 02:58:26;;;;;;;52.38;28.40;;;5.80;99.90;;;;;;5031866;28;20071;-69
2021/10/09 03:00:52;;;;;;;49.50;28.05;;;5.80;99.90;;;;;;5034084;28;20064;-70
2021/10/09 03:03:18;;;;;;;48.40;27.52;;;5.80;99.90;;;;;;5035672;28;20061;-68
2021/10/09 03:05:43;;;;;;;49.63;28.42;;;5.80;99.90;;;;;;5032665;28;20515;-69
2021/10/09 03:08:12;;;;;;;47.15;28.10;;;5.80;99.90;;;;;;5032740;28;20053;-70
2021/10/09 03:10:38;;;;;;;44.78;26.77;;;5.80;99.90;;;;;;5032595;28;20021;-70
2021/10/09 03:13:04;;;;;;;44.78;27.95;;;5.80;99.90;;;;;;5032441;28;20109;-70
2021/10/09 03:15:29;;;;;;;54.38;28.23;;;5.80;99.90;;;;;;5035306;28;20048;-70
2021/10/09 03:17:55;;;;;;;43.05;25.95;;;5.70;99.90;;;;;;5044392;28;20041;-70
2021/10/09 03:20:21;;;;;;;48.10;27.33;;;5.70;99.90;;;;;;5058911;28;20093;-69
2021/10/09 03:22:47;;;;;;;50.40;27.80;;;5.60;99.90;;;;;;5052404;28;20370;-71
2021/10/09 03:25:15;;;;;;;46.67;26.98;;;5.60;99.90;;;;;;5047995;28;20049;-68
2021/10/09 03:27:40;;;;;;;50.60;27.30;;;5.60;99.90;;;;;;5051908;28;20029;-70
2021/10/09 03:30:07;;;;;;;49.58;28.48;;;5.50;99.90;;;;;;5038574;28;20029;-71
2021/10/09 03:32:33;;;;;;;43.25;25.83;;;5.50;99.90;;;;;;5032235;28;20195;-70
2021/10/09 03:34:59;;;;;;;56.08;28.23;;;5.60;99.90;;;;;;5048515;28;20053;-69
2021/10/09 03:37:25;;;;;;;46.15;25.75;;;5.50;99.90;;;;;;5044030;28;20052;-69
2021/10/09 03:39:52;;;;;;;40.95;25.15;;;5.60;99.90;;;;;;5042856;28;20473;-70
2021/10/09 03:42:26;;;;;;;47.13;27.65;;;5.50;99.90;;;;;;5044775;28;20029;-69
2021/10/09 03:44:56;;;;;;;46.95;27.17;;;5.50;99.90;;;;;;5032161;28;20033;-70
2021/10/09 03:47:41;;;;;;;43.83;26.00;;;5.40;99.90;;;;;;5032273;28;20028;-69
2021/10/09 03:52:53;;;;;;;42.15;24.17;;;5.40;99.90;;;;;;5035103;28;20087;-69
2021/10/09 03:55:19;;;;;;;42.55;25.42;;;5.40;99.90;;;;;;5031058;28;20430;-69
2021/10/09 03:57:45;;;;;;;40.75;23.73;;;5.40;99.90;;;;;;5031863;28;20029;-70
2021/10/09 04:00:14;;;;;;;36.58;23.85;;;5.30;99.90;;;;;;5039909;28;20029;-70
2021/10/09 04:02:39;;;;;;;37.50;23.00;;;5.30;99.90;;;;;;5030911;28;20033;-69
2021/10/09 04:05:06;;;;;;;40.35;22.60;;;5.20;99.90;;;;;;5048616;28;20029;-74
2021/10/09 04:07:32;;;;;;;37.83;23.80;;;5.20;99.90;;;;;;5051282;28;20126;-70
2021/10/09 04:09:58;;;;;;;38.78;24.55;;;5.30;99.90;;;;;;5034787;28;20045;-69
2021/10/09 04:12:25;;;;;;;40.08;23.75;;;;;;;;;;5050525;28;20033;-69
2021/10/09 04:14:51;;;;;;;40.28;23.67;;;;;;;;;;5023494;28;20029;-70
2021/10/09 04:17:17;;;;;;;44.42;24.35;;;5.10;99.90;;;;;;5048023;28;20021;-68
2021/10/09 04:19:43;;;;;;;45.53;23.67;;;5.20;99.90;;;;;;5055683;28;20025;-69
2021/10/09 04:22:08;;;;;;;36.25;23.20;;;5.20;99.90;;;;;;5052936;28;20041;-70
2021/10/09 04:24:34;;;;;;;36.10;21.70;;;5.30;99.90;;;;;;5033648;28;20042;-71
2021/10/09 04:27:00;;;;;;;35.67;22.80;;;5.30;99.90;;;;;;5040478;28;20048;-69
2021/10/09 04:29:25;;;;;;;34.47;21.30;;;5.30;99.90;;;;;;5042259;28;20112;-70
2021/10/09 04:31:51;;;;;;;35.47;21.75;;;5.20;99.90;;;;;;5051597;28;20032;-70
2021/10/09 04:34:18;;;;;;;37.58;22.58;;;5.30;99.90;;;;;;5050922;28;20430;-68
2021/10/09 04:36:43;;;;;;;41.50;23.30;;;5.20;99.90;;;;;;5040971;28;20030;-70
2021/10/09 04:39:09;;;;;;;37.55;23.08;;;5.10;99.90;;;;;;5045064;28;20037;-69
2021/10/09 04:41:35;;;;;;;38.72;23.58;;;5.10;99.90;;;;;;5031203;28;20034;-69
2021/10/09 04:44:00;;;;;;;39.85;22.95;;;5.20;99.90;;;;;;5031873;28;20029;-70
2021/10/09 04:46:26;;;;;;;37.35;22.20;;;5.10;99.90;;;;;;5049674;28;20029;-68
2021/10/09 04:48:52;;;;;;;35.92;22.27;;;5.10;99.90;;;;;;5048113;28;20069;-69
2021/10/09 04:51:17;;;;;;;38.70;23.48;;;5.10;99.90;;;;;;5034409;28;20482;-68
2021/10/09 04:53:43;;;;;;;40.92;24.52;;;5.10;99.90;;;;;;5034997;28;20025;-69
2021/10/09 04:56:09;;;;;;;36.60;22.60;;;5.10;99.90;;;;;;5035013;28;20025;-70
2021/10/09 04:58:34;;;;;;;32.53;21.27;;;5.10;99.90;;;;;;5034933;28;20029;-69
2021/10/09 05:01:02;;;;;;;36.85;22.55;;;;;;;;;;5045383;28;20098;-69
2021/10/09 05:03:28;;;;;;;40.47;23.52;;;;;;;;;;5053264;28;20486;-69
2021/10/09 05:05:54;;;;;;;41.80;24.00;;;4.80;99.90;;;;;;5045897;28;20612;-69
2021/10/09 05:08:20;;;;;;;36.75;22.80;;;4.80;99.90;;;;;;5039460;28;20051;-68
2021/10/09 05:10:46;;;;;;;42.22;23.63;;;4.80;99.90;;;;;;5026165;28;20481;-69
2021/10/09 05:13:12;;;;;;;36.97;22.27;;;4.80;99.90;;;;;;5061669;28;20029;-70
2021/10/09 05:15:42;;;;;;;34.75;22.88;;;4.70;99.90;;;;;;5062110;28;20031;-69
2021/10/09 05:18:08;;;;;;;43.88;24.20;;;4.60;99.90;;;;;;5056209;28;20032;-69
2021/10/09 05:20:34;;;;;;;42.30;23.25;;;4.60;99.90;;;;;;5025054;28;20330;-69
2021/10/09 05:22:59;;;;;;;45.13;25.02;;;4.60;99.90;;;;;;5067537;28;20039;-70
2021/10/09 05:25:25;;;;;;;40.10;23.02;;;4.60;99.90;;;;;;5064690;28;20059;-69
2021/10/09 05:27:58;;;;;;;45.35;24.30;;;4.60;99.90;;;;;;5052846;28;20503;-69
2021/10/09 05:30:25;;;;;;;40.10;23.40;;;4.60;99.90;;;;;;5033071;28;20120;-68
2021/10/09 05:35:35;;;;;;;42.92;23.85;;;4.60;99.90;;;;;;5053301;28;20036;-68
2021/10/09 05:38:01;;;;;;;43.20;26.25;;;4.60;99.90;;;;;;5052723;28;20037;-70
2021/10/09 05:40:26;;;;;;;44.63;24.75;;;4.60;99.90;;;;;;5057473;28;20072;-68
2021/10/09 05:42:52;;;;;;;44.20;25.33;;;4.60;99.90;;;;;;5057153;28;20469;-68
2021/10/09 05:45:18;;;;;;;43.60;25.08;;;4.60;99.90;;;;;;5053843;28;20021;-68
2021/10/09 05:47:44;;;;;;;48.88;26.83;;;4.60;99.90;;;;;;5053323;28;20024;-68
2021/10/09 05:50:12;;;;;;;46.42;27.05;;;4.60;99.90;;;;;;5047879;28;20478;-68
2021/10/09 05:52:47;;;;;;;51.50;27.45;;;4.60;99.90;;;;;;5033362;28;20040;-69
2021/10/09 06:00:41;;;;;;;45.42;26.15;;;4.60;99.90;;;;;;5039637;28;20111;-68
2021/10/09 06:49:51;;;;;;;43.83;26.73;;;5.70;99.90;;;;;;5001551;28;20109;-68
2021/10/09 07:00:30;;;;;;;39.80;25.45;;;6.10;99.90;;;;;;5001876;28;20088;-67
2021/10/09 07:02:55;;;;;;;36.67;22.95;;;6.20;99.90;;;;;;5000945;28;20030;-68
2021/10/09 07:05:21;;;;;;;36.75;24.02;;;6.30;99.90;;;;;;5000678;28;20018;-67
2021/10/09 07:07:57;;;;;;;38.92;23.45;;;6.40;99.90;;;;;;5032466;28;20176;-69
2021/10/09 07:10:23;;;;;;;36.10;22.70;;;6.50;99.90;;;;;;5046781;28;20094;-68
2021/10/09 07:12:48;;;;;;;33.97;22.05;;;6.60;99.90;;;;;;5034602;28;20194;-67
2021/10/09 07:15:18;;;;;;;32.45;21.73;;;6.70;99.90;;;;;;5052415;28;20056;-69
2021/10/09 07:17:45;;;;;;;29.38;21.35;;;6.80;99.90;;;;;;5051097;28;20043;-68
2021/10/09 07:20:11;;;;;;;32.17;21.38;;;6.90;99.90;;;;;;5060381;28;20538;-66
2021/10/09 07:22:37;;;;;;;31.67;21.65;;;7.00;99.90;;;;;;5065797;28;20033;-67
2021/10/09 07:25:03;;;;;;;32.28;21.75;;;7.10;99.90;;;;;;5051112;28;20048;-67
2021/10/09 07:27:29;;;;;;;36.22;21.25;;;7.20;99.90;;;;;;5040796;28;20077;-69
2021/10/09 07:29:55;;;;;;;33.97;21.23;;;7.30;99.90;;;;;;5032165;28;20029;-68
2021/10/09 07:32:21;;;;;;;34.45;20.52;;;7.40;99.90;;;;;;5037628;28;20032;-66
2021/10/09 07:34:46;;;;;;;28.88;19.25;;;7.50;99.90;;;;;;5051748;28;20029;-68
2021/10/09 07:37:12;;;;;;;27.25;20.90;;;7.60;99.90;;;;;;5041871;28;20465;-68
2021/10/09 07:39:38;;;;;;;32.75;20.40;;;7.70;99.90;;;;;;5033800;28;20041;-68
2021/10/09 07:42:04;;;;;;;27.25;18.65;;;7.80;99.90;;;;;;5042646;28;20043;-69
2021/10/09 07:44:30;;;;;;;29.50;18.25;;;7.90;99.90;;;;;;5031294;28;20026;-68
2021/10/09 07:46:56;;;;;;;30.10;19.73;;;8.00;99.90;;;;;;5042639;28;20053;-69
2021/10/09 07:49:22;;;;;;;29.42;18.98;;;8.10;99.90;;;;;;5031141;28;20455;-66
2021/10/09 07:51:48;;;;;;;28.58;19.10;;;8.20;99.90;;;;;;5022559;28;20420;-68
2021/10/09 07:54:14;;;;;;;30.83;19.17;;;8.40;99.90;;;;;;5051516;28;20508;-69
2021/10/09 07:56:40;;;;;;;29.25;18.95;;;8.40;99.90;;;;;;5044913;28;20033;-68
2021/10/09 07:59:05;;;;;;;35.58;19.55;;;8.60;99.90;;;;;;5031793;28;20431;-68
2021/10/09 08:01:32;;;;;;;28.75;18.63;;;8.70;99.90;;;;;;5030691;28;20068;-67
2021/10/09 08:03:58;;;;;;;27.38;17.38;;;8.80;99.90;;;;;;5031453;28;20076;-68
2021/10/09 08:06:24;;;;;;;28.95;19.30;;;8.90;99.90;;;;;;5022209;28;20124;-66
2021/10/09 08:08:50;;;;;;;24.63;17.38;;;9.00;99.90;;;;;;5011604;28;20121;-69
2021/10/09 08:11:16;;;;;;;30.80;18.85;;;9.20;99.90;;;;;;5012016;28;20026;-67
2021/10/09 08:13:43;;;;;;;28.85;17.98;;;9.40;99.90;;;;;;5021519;28;20021;-67
2021/10/09 08:16:08;;;;;;;23.65;17.13;;;9.50;99.90;;;;;;5030940;28;20029;-68
2021/10/09 08:18:34;;;;;;;25.90;17.73;;;9.70;99.90;;;;;;5012873;28;20448;-67
2021/10/09 08:21:03;;;;;;;27.20;17.58;;;9.80;99.90;;;;;;5042535;28;20038;-67
2021/10/09 08:23:33;;;;;;;31.98;16.88;;;9.80;99.90;;;;;;5026676;28;20041;-67
2021/10/09 08:39:23;;;;;;;28.92;16.48;;;10.40;99.90;;;;;;5015372;28;20041;-68
2021/10/09 08:41:50;;;;;;;26.77;17.05;;;10.60;99.90;;;;;;5014974;28;20339;-68
2021/10/09 08:44:16;;;;;;;27.25;17.75;;;10.70;99.90;;;;;;5015563;28;20041;-69
2021/10/09 08:46:41;;;;;;;27.40;16.60;;;10.80;99.90;;;;;;5029319;28;20101;-68
2021/10/09 08:49:08;;;;;;;30.33;17.52;;;11.00;99.90;;;;;;5032696;28;21621;-68
2021/10/09 08:51:33;;;;;;;24.63;16.42;;;11.00;99.90;;;;;;5034194;28;20087;-66
2021/10/09 08:54:10;;;;;;;29.60;17.25;;;11.00;99.90;;;;;;5031957;28;20643;-68
2021/10/09 08:56:40;;;;;;;25.17;17.15;;;11.00;99.90;;;;;;5028753;28;20087;-69
2021/10/09 08:59:10;;;;;;;26.98;16.90;;;11.10;99.90;;;;;;5042567;28;20041;-68
2021/10/09 09:01:51;;;;;;;23.63;16.02;;;11.20;99.90;;;;;;5032471;28;20419;-68
2021/10/09 09:09:21;;;;;;;25.25;16.83;;;11.50;99.90;;;;;;5034538;28;20033;-69
2021/10/09 09:40:16;;;;;;;26.80;16.73;;;12.50;99.90;;;;;;5053115;28;20044;-69
2021/10/09 09:42:45;;;;;;;28.33;16.88;;;12.70;99.90;;;;;;5052727;28;20033;-70
2021/10/09 09:45:13;;;;;;;27.43;17.60;;;12.80;99.90;;;;;;5053498;28;20033;-70
2021/10/09 09:47:41;;;;;;;23.88;17.20;;;12.80;99.90;;;;;;5052485;28;20791;-69
2021/10/09 09:50:30;;;;;;;27.95;17.60;;;12.80;99.90;;;;;;5036555;28;20037;-70
2021/10/09 09:52:59;;;;;;;25.20;16.13;;;12.90;99.90;;;;;;5052176;28;20040;-70
2021/10/09 09:55:25;;;;;;;22.77;15.85;;;13.00;99.90;;;;;;5039867;28;20536;-68
2021/10/09 09:57:54;;;;;;;25.60;17.38;;;13.10;99.90;;;;;;5033751;28;20021;-72
2021/10/09 10:00:31;;;;;;;26.75;16.23;;;13.20;99.90;;;;;;5042289;28;20040;-71
2021/10/09 10:02:57;;;;;;;25.35;16.30;;;13.30;99.90;;;;;;5054049;28;20070;-70
2021/10/09 10:05:28;;;;;;;29.63;16.13;;;13.30;99.90;;;;;;5053002;28;20522;-70
2021/10/09 10:07:54;;;;;;;30.65;15.95;;;13.40;99.90;;;;;;5035413;28;20057;-71
2021/10/09 10:10:19;;;;;;;24.40;15.60;;;13.40;99.90;;;;;;5033529;28;20037;-71
2021/10/09 10:13:00;;;;;;;23.92;14.90;;;13.50;99.90;;;;;;5048342;28;20168;-69
2021/10/09 10:15:30;;;;;;;21.00;14.93;;;13.70;99.90;;;;;;5053578;28;20021;-68
2021/10/09 10:17:56;;;;;;;25.27;14.32;;;13.80;99.90;;;;;;5033631;28;20029;-70
2021/10/09 10:23:45;;;;;;;22.02;13.45;;;14.10;99.90;;;;;;5038518;28;20037;-68
2021/10/09 10:26:31;;;;;;;19.85;12.65;;;14.20;99.90;;;;;;5047727;28;20099;-69
2021/10/09 10:28:56;;;;;;;17.17;12.00;;;14.40;99.30;;;;;;5033175;28;20323;-70
2021/10/09 10:31:23;;;;;;;22.77;13.07;;;14.40;99.00;;;;;;5033348;28;20021;-69
2021/10/09 10:33:58;;;;;;;15.65;11.60;;;14.50;99.00;;;;;;5032894;28;20093;-69
2021/10/09 10:36:40;;;;;;;18.10;12.63;;;14.70;97.70;;;;;;5052440;28;20048;-70
2021/10/09 10:39:08;;;;;;;17.30;12.00;;;14.80;96.80;;;;;;5039516;28;20041;-70
2021/10/09 10:41:40;;;;;;;19.40;11.10;;;14.90;96.50;;;;;;5032410;28;20413;-72
2021/10/09 10:44:07;;;;;;;15.88;11.18;;;14.90;95.40;;;;;;5032513;28;20025;-70
2021/10/09 10:46:53;;;;;;;18.48;10.43;;;14.90;95.10;;;;;;5042544;28;20028;-70
2021/10/09 10:49:55;;;;;;;17.42;11.48;;;15.00;95.50;;;;;;5052949;28;20398;-71
2021/10/09 10:52:53;;;;;;;20.33;11.30;;;15.20;93.60;;;;;;5051591;28;20428;-72
2021/10/09 10:55:19;;;;;;;17.42;10.25;;;15.30;93.30;;;;;;5048853;28;20064;-70
2021/10/09 10:58:19;;;;;;;22.35;10.70;;;15.30;92.40;;;;;;5033884;28;20061;-70
2021/10/09 11:01:17;;;;;;;16.77;10.10;;;15.40;90.50;;;;;;5042399;28;20036;-69
2021/10/09 11:03:51;;;;;;;19.88;10.70;;;15.40;90.60;;;;;;5053144;28;20025;-69
2021/10/09 11:06:19;;;;;;;16.55;11.00;;;15.40;91.40;;;;;;5047031;28;20057;-70
2021/10/09 11:08:45;;;;;;;17.65;11.13;;;15.40;91.20;;;;;;5051666;28;20048;-68
2021/10/09 11:11:11;;;;;;;15.02;10.13;;;15.50;90.40;;;;;;5052460;28;20035;-72
2021/10/09 11:13:40;;;;;;;16.70;10.48;;;15.60;90.30;;;;;;5033769;28;20087;-68
2021/10/09 11:16:05;;;;;;;16.40;10.10;;;15.70;89.50;;;;;;5047048;28;20117;-68
2021/10/09 11:18:50;;;;;;;17.70;9.93;;;15.80;89.60;;;;;;5032305;28;20108;-70
2021/10/09 11:21:17;;;;;;;19.98;10.20;;;15.80;89.10;;;;;;5042421;28;20033;-69
2021/10/09 11:23:54;;;;;;;15.80;10.43;;;15.90;88.40;;;;;;5051351;28;20033;-72
2021/10/09 11:26:20;;;;;;;21.70;11.00;;;16.00;88.20;;;;;;5036003;28;20043;-75
2021/10/09 11:28:47;;;;;;;17.00;9.73;;;16.00;89.00;;;;;;5032157;28;20379;-77
2021/10/09 11:31:26;;;;;;;21.92;10.52;;;16.10;85.90;;;;;;5032242;28;20371;-73
2021/10/09 11:34:02;;;;;;;17.45;10.70;;;16.10;85.30;;;;;;5032051;28;20045;-74
2021/10/09 11:36:28;;;;;;;18.90;10.55;;;16.10;84.70;;;;;;5054270;28;20025;-78
2021/10/09 11:39:00;;;;;;;16.90;8.77;;;16.20;85.00;;;;;;5059617;28;20032;-75
2021/10/09 11:41:29;;;;;;;17.38;9.05;;;16.30;85.80;;;;;;5061230;28;20378;-87
2021/10/09 11:44:07;;;;;;;15.75;9.35;;;16.40;83.50;;;;;;5054161;28;20033;-74
2021/10/09 11:55:20;;;;;;;16.15;10.00;;;18.00;78.60;;;;;;5051771;28;20043;-76
2021/10/09 11:57:47;;;;;;;13.52;9.98;;;18.00;79.20;;;;;;5041354;28;20029;-76
2021/10/09 12:00:28;;;;;;;17.05;9.38;;;;;;;;;;5032358;28;20029;-74
2021/10/09 12:02:55;;;;;;;15.75;9.18;;;;;;;;;;5031137;28;20091;-74
2021/10/09 12:05:21;;;;;;;19.38;9.80;;;;;;;;;;5037657;28;20013;-72
2021/10/09 12:08:41;;;;;;;14.93;9.60;;;;;;;;;;5031702;28;20046;-74
2021/10/09 12:11:10;;;;;;;13.55;9.20;;;;;;;;;;5037308;28;20033;-74
2021/10/09 12:13:46;;;;;;;15.85;9.32;;;;;;;;;;5039395;28;20025;-73
2021/10/09 12:16:12;;;;;;;14.15;9.10;;;;;;;;;;5044876;28;20033;-72
2021/10/09 12:18:56;;;;;;;12.35;9.02;;;;;;;;;;5050505;28;20025;-74
2021/10/09 12:21:24;;;;;;;16.10;9.48;;;;;;;;;;5051053;28;20049;-73
2021/10/09 12:23:52;;;;;;;15.05;9.25;;;19.30;67.90;;;;;;5050579;28;20021;-72
2021/10/09 12:26:18;;;;;;;12.45;8.60;;;19.20;68.40;;;;;;5050283;28;20036;-72
2021/10/09 12:29:13;;;;;;;15.35;8.77;;;19.20;68.00;;;;;;5041121;28;20364;-73
2021/10/09 12:31:46;;;;;;;16.92;8.82;;;19.40;67.30;;;;;;5031753;28;20035;-74
2021/10/09 12:34:31;;;;;;;15.82;9.35;;;19.60;67.30;;;;;;5034472;28;20025;-73
2021/10/09 12:37:10;;;;;;;15.35;9.32;;;19.60;65.70;;;;;;5049079;28;20033;-72
2021/10/09 12:39:36;;;;;;;17.42;9.38;;;19.40;66.40;;;;;;5048336;28;20048;-75
2021/10/09 12:42:01;;;;;;;12.35;8.82;;;19.60;66.00;;;;;;5051325;28;20120;-80
2021/10/09 12:44:27;;;;;;;14.73;9.88;;;20.00;65.50;;;;;;5050818;28;20105;-75
2021/10/09 12:46:53;;;;;;;11.48;8.35;;;20.00;63.80;;;;;;5050372;28;20033;-74
2021/10/09 12:49:18;;;;;;;13.10;8.10;;;20.10;64.50;;;;;;5051134;28;20033;-73
2021/10/09 12:51:44;;;;;;;13.95;8.40;;;20.30;63.80;;;;;;5036438;28;20458;-74
2021/10/09 12:54:15;;;;;;;12.38;7.95;;;20.50;63.40;;;;;;5031612;28;20030;-75
2021/10/09 12:56:41;;;;;;;14.15;8.82;;;20.70;62.90;;;;;;5049658;28;20025;-75
2021/10/09 12:59:07;;;;;;;12.45;8.00;;;21.00;62.00;;;;;;5051050;28;20090;-75
2021/10/09 13:01:33;;;;;;;11.27;8.13;;;21.00;62.10;;;;;;5051172;28;20033;-74
2021/10/09 13:03:58;;;;;;;14.63;8.75;;;21.10;62.30;;;;;;5050490;28;20052;-78
2021/10/09 13:06:24;;;;;;;12.40;8.80;;;21.10;61.60;;;;;;5033889;28;20038;-78
2021/10/09 13:08:50;;;;;;;13.77;9.85;;;20.90;61.40;;;;;;5034050;28;20029;-77
2021/10/09 13:11:21;;;;;;;14.05;9.05;;;20.70;61.70;;;;;;5034807;28;20021;-75
2021/10/09 13:13:47;;;;;;;16.48;9.35;;;20.60;62.70;;;;;;5034027;28;20029;-72
2021/10/09 13:16:13;;;;;;;20.92;9.18;;;20.60;61.90;;;;;;5049968;28;20367;-72
2021/10/09 13:18:39;;;;;;;11.15;8.57;;;20.50;61.60;;;;;;5054494;28;20040;-74
2021/10/09 13:21:04;;;;;;;15.80;9.52;;;20.30;62.10;;;;;;5074525;28;20029;-73
2021/10/09 13:23:32;;;;;;;15.75;8.95;;;20.30;61.50;;;;;;5071895;28;20021;-71
2021/10/09 13:26:01;;;;;;;16.05;9.05;;;20.30;61.30;;;;;;5040052;28;20045;-71
2021/10/09 13:28:27;;;;;;;13.45;7.95;;;20.30;62.10;;;;;;5039833;28;20025;-75
2021/10/09 13:30:53;;;;;;;17.20;8.80;;;20.30;62.50;;;;;;5016022;28;20355;-76
2021/10/09 13:33:19;;;;;;;14.10;8.05;;;20.20;61.80;;;;;;5016783;28;20037;-77
2021/10/09 13:35:45;;;;;;;11.50;8.13;;;20.20;62.00;;;;;;5047651;28;20394;-75
2021/10/09 13:38:13;;;;;;;17.30;8.57;;;20.30;61.80;;;;;;5054219;28;20068;-72
2021/10/09 13:40:39;;;;;;;12.32;8.27;;;20.30;61.30;;;;;;5052727;28;20399;-73
2021/10/09 13:43:09;;;;;;;13.90;8.52;;;20.20;61.00;;;;;;5053846;28;20029;-73
2021/10/09 13:45:34;;;;;;;15.63;7.80;;;20.00;61.30;;;;;;5044455;28;20471;-72
2021/10/09 13:48:00;;;;;;;11.38;8.25;;;19.90;62.20;;;;;;5033160;28;20094;-73
2021/10/09 13:50:32;;;;;;;12.73;7.07;;;19.90;62.00;;;;;;5034423;28;20074;-74
2021/10/09 13:52:57;;;;;;;11.20;7.90;;;20.00;61.10;;;;;;5033032;28;20032;-73
2021/10/09 13:55:23;;;;;;;17.50;8.75;;;20.10;61.60;;;;;;5035669;28;20025;-72
2021/10/09 13:57:49;;;;;;;11.52;8.48;;;19.90;61.60;;;;;;5030590;28;20034;-73
2021/10/09 14:00:15;;;;;;;13.45;8.52;;;19.80;62.20;;;;;;5050965;28;20116;-75
2021/10/09 14:02:41;;;;;;;13.25;8.43;;;19.60;62.30;;;;;;5042415;28;20038;-74
2021/10/09 14:05:07;;;;;;;14.55;8.52;;;19.50;62.70;;;;;;5044119;28;20099;-75
2021/10/09 14:07:33;;;;;;;14.23;7.78;;;19.60;62.10;;;;;;5049284;28;20406;-73
2021/10/09 14:10:00;;;;;;;13.63;8.02;;;19.60;62.30;;;;;;5057221;28;20033;-73
2021/10/09 14:12:25;;;;;;;14.15;8.05;;;19.70;62.40;;;;;;5042725;28;20025;-73
2021/10/09 14:14:51;;;;;;;13.93;8.75;;;19.80;62.30;;;;;;5067880;28;20043;-74
2021/10/09 14:17:16;;;;;;;17.25;8.80;;;19.80;62.50;;;;;;5041638;28;20021;-73
2021/10/09 14:19:42;;;;;;;11.40;7.43;;;19.90;62.00;;;;;;5061390;28;20029;-74
2021/10/09 14:22:07;;;;;;;12.82;8.00;;;19.80;62.70;;;;;;5073122;28;20465;-75
2021/10/09 14:24:33;;;;;;;14.35;8.25;;;19.90;62.40;;;;;;5071921;28;20112;-74
2021/10/09 14:26:59;;;;;;;12.30;7.68;;;19.90;62.30;;;;;;5033490;28;20100;-75
2021/10/09 14:29:24;;;;;;;11.32;8.23;;;19.90;62.40;;;;;;5046401;28;20099;-74
2021/10/09 14:31:50;;;;;;;12.00;8.32;;;19.90;62.10;;;;;;5046313;28;20324;-73
2021/10/09 14:34:16;;;;;;;12.52;7.63;;;19.80;62.40;;;;;;5037240;28;20077;-73
2021/10/09 14:36:41;;;;;;;12.55;8.57;;;19.70;63.00;;;;;;5052306;28;20041;-74
2021/10/09 14:39:07;;;;;;;12.75;7.80;;;19.50;62.60;;;;;;5052693;28;20064;-74
2021/10/09 14:41:33;;;;;;;9.30;7.30;;;19.20;63.60;;;;;;5051043;28;20085;-74
2021/10/09 14:43:59;;;;;;;19.52;7.90;;;18.90;64.70;;;;;;5037380;28;20112;-73
2021/10/09 14:49:04;;;;;;;10.82;7.45;;;18.50;65.00;;;;;;5032351;28;20114;-73
2021/10/09 14:51:42;;;;;;;11.25;7.10;;;18.20;65.80;;;;;;5033338;28;20458;-73
2021/10/09 14:54:57;;;;;;;11.90;7.13;;;18.10;65.80;;;;;;5048404;28;20024;-73
2021/10/09 15:02:47;;;;;;;10.32;7.10;;;17.90;65.40;;;;;;5043225;28;20032;-77
2021/10/09 15:18:48;;;;;;;12.88;7.60;;;18.10;65.40;;;;;;5031687;28;20025;-74
2021/10/09 15:21:14;;;;;;;10.65;6.85;;;18.20;65.80;;;;;;5042801;28;20033;-73
2021/10/09 15:23:40;;;;;;;12.75;7.20;;;18.30;65.40;;;;;;5052192;28;20440;-73
2021/10/09 15:26:06;;;;;;;9.23;6.35;;;18.20;64.70;;;;;;5040292;28;20080;-73